Similk Beach, Washington
Current Conditions -  °F | °C
As of 11:56 PM on Saturday 25 Oct 2014 (Local Time) from KNUW Reporting Station
Overcast Overcast  
Wind Chill: 56°   Ceiling: 7500
Heat Index: 56°   Visibility: 10mi
Dew Point: 45°   Wind: 23mph
Humidity: 67%   Direction: 240°WSW
Pressure: 29.7"   Gusts: 37mph
Location:  48.4652°N, 122.617°W
Report Text: KNUW 260656Z 24020G32KT 10SM FEW021 SCT055 BKN075 OVC160 13/07 A2970 RMK AO2 PK WND 24032/0612 SLP059 T01330072 401720106 $
Loading
Personal Weather Stations






























Interactive Weather Map
Tropical Storm Tracking
New forecast layout! Learn more

10-Day Weather Forecast

Advertisements
Track Severe Weather on mobile